createdAt,value
2022-09-28T00:01:20.227Z,9.80
2022-09-28T00:03:50.004Z,9.80
2022-09-28T00:06:20.461Z,9.80
2022-09-28T00:08:50.282Z,9.80
2022-09-28T00:11:20.814Z,9.80
2022-09-28T00:13:52.519Z,9.80
2022-09-28T00:16:22.255Z,9.80
2022-09-28T00:18:51.258Z,9.80
2022-09-28T00:21:21.605Z,9.90
2022-09-28T00:24:10.404Z,9.80
2022-09-28T00:26:38.996Z,9.80
2022-09-28T00:29:15.368Z,9.90
2022-09-28T00:31:43.984Z,9.90
2022-09-28T00:34:12.244Z,9.90
2022-09-28T00:36:40.805Z,9.90
2022-09-28T00:39:09.963Z,9.80
2022-09-28T00:41:40.022Z,9.80
2022-09-28T00:44:38.271Z,9.80
2022-09-28T00:47:17.725Z,9.80
2022-09-28T00:49:51.186Z,9.80
2022-09-28T00:52:25.018Z,9.90
2022-09-28T00:54:54.508Z,9.80
2022-09-28T00:57:24.408Z,9.70
2022-09-28T00:59:54.173Z,9.70
2022-09-28T01:02:22.727Z,9.70
2022-09-28T01:04:52.227Z,9.70
2022-09-28T01:07:20.890Z,9.80
2022-09-28T01:09:49.903Z,9.70
2022-09-28T01:12:18.099Z,9.70
2022-09-28T01:14:46.572Z,9.60
2022-09-28T01:17:18.934Z,9.60
2022-09-28T01:20:23.832Z,9.60
2022-09-28T01:23:24.646Z,9.60
2022-09-28T01:25:55.968Z,9.60
2022-09-28T01:28:29.352Z,9.50
2022-09-28T01:31:07.719Z,9.40
2022-09-28T01:33:40.208Z,9.40
2022-09-28T01:36:12.981Z,9.40
2022-09-28T01:38:46.748Z,9.40
2022-09-28T01:41:17.867Z,9.30
2022-09-28T01:43:55.717Z,9.30
2022-09-28T01:46:28.413Z,9.30
2022-09-28T01:48:59.164Z,9.30
2022-09-28T01:51:33.242Z,9.30
2022-09-28T01:54:06.454Z,9.20
2022-09-28T01:56:39.155Z,9.20
2022-09-28T01:59:13.013Z,9.20
2022-09-28T02:01:46.803Z,9.30
2022-09-28T02:04:19.906Z,9.20
2022-09-28T02:06:55.440Z,9.20
2022-09-28T02:09:31.701Z,9.20
2022-09-28T02:12:07.594Z,9.30
2022-09-28T02:14:41.594Z,9.30
2022-09-28T02:17:11.348Z,9.20
2022-09-28T02:19:41.314Z,9.20
2022-09-28T02:22:23.449Z,9.20
2022-09-28T02:24:57.722Z,9.20
2022-09-28T02:27:35.396Z,9.20
2022-09-28T02:30:06.675Z,9.20
2022-09-28T02:32:40.196Z,9.20
2022-09-28T02:35:10.304Z,9.30
2022-09-28T02:37:39.116Z,9.30
2022-09-28T02:40:14.351Z,9.30
2022-09-28T02:42:54.102Z,9.20
2022-09-28T02:45:37.161Z,9.20
2022-09-28T02:48:19.126Z,9.20
2022-09-28T02:51:07.114Z,9.20
2022-09-28T02:53:55.076Z,9.30
2022-09-28T02:56:46.979Z,9.10
2022-09-28T02:59:24.803Z,9.20
2022-09-28T03:02:01.111Z,9.20
2022-09-28T03:04:40.940Z,9.20
2022-09-28T03:07:21.777Z,9.20
2022-09-28T03:09:59.934Z,9.20
2022-09-28T03:12:30.051Z,9.10
2022-09-28T03:15:09.408Z,9.20
2022-09-28T03:17:39.948Z,9.20
2022-09-28T03:20:11.180Z,9.20
2022-09-28T03:22:40.407Z,9.10
2022-09-28T03:25:09.806Z,9.20
2022-09-28T03:27:40.084Z,9.20
2022-09-28T03:30:10.330Z,9.10
2022-09-28T03:32:40.980Z,9.20
2022-09-28T03:35:11.222Z,9.20
2022-09-28T03:37:39.550Z,9.20
2022-09-28T03:40:08.521Z,9.20
2022-09-28T03:42:38.406Z,9.10
2022-09-28T03:45:07.801Z,9.10
2022-09-28T03:47:37.126Z,9.10
2022-09-28T03:50:07.531Z,9.10
2022-09-28T03:52:35.686Z,9.20
2022-09-28T03:55:03.925Z,9.20
2022-09-28T03:57:32.652Z,9.20
2022-09-28T04:00:00.874Z,9.10
2022-09-28T04:02:30.739Z,9.10
2022-09-28T04:04:59.452Z,9.10
2022-09-28T04:07:31.019Z,9.20
2022-09-28T04:10:00.207Z,9.20
2022-09-28T04:12:28.519Z,9.20
2022-09-28T04:14:56.700Z,9.20
2022-09-28T04:17:24.942Z,9.10
2022-09-28T04:19:54.128Z,9.10
2022-09-28T04:22:42.245Z,9.20
2022-09-28T04:25:11.045Z,9.20
2022-09-28T04:27:56.587Z,9.10
2022-09-28T04:30:24.879Z,9.10
2022-09-28T04:32:54.108Z,9.10
2022-09-28T04:35:22.479Z,9.10
2022-09-28T04:37:52.169Z,9.10
2022-09-28T04:40:20.564Z,9.10
2022-09-28T04:42:54.927Z,9.10
2022-09-28T04:45:23.508Z,9.10
2022-09-28T04:47:52.080Z,9.10
2022-09-28T04:50:31.576Z,9.10
2022-09-28T04:53:18.613Z,9.10
2022-09-28T04:55:55.701Z,9.10
2022-09-28T04:58:23.862Z,9.10
2022-09-28T05:00:54.328Z,9.10
2022-09-28T05:03:43.407Z,9.00
2022-09-28T05:06:28.647Z,9.00
2022-09-28T05:09:04.315Z,9.10
2022-09-28T05:11:32.552Z,9.10
2022-09-28T05:14:01.273Z,9.10
2022-09-28T05:16:31.003Z,9.10
2022-09-28T05:19:17.790Z,9.10
2022-09-28T05:21:46.883Z,9.00
2022-09-28T05:24:16.591Z,9.00
2022-09-28T05:26:50.244Z,9.10
2022-09-28T05:29:18.649Z,9.10
2022-09-28T05:32:07.015Z,9.10
2022-09-28T05:34:45.398Z,9.10
2022-09-28T05:37:19.949Z,9.10
2022-09-28T05:39:49.867Z,9.10
2022-09-28T05:42:18.127Z,9.10
2022-09-28T05:44:46.253Z,9.00
2022-09-28T05:47:14.699Z,9.00
2022-09-28T05:49:44.297Z,9.00
2022-09-28T05:52:13.483Z,9.10
2022-09-28T05:54:41.826Z,9.00
2022-09-28T05:57:11.402Z,9.10
2022-09-28T05:59:39.723Z,9.10
2022-09-28T06:02:08.630Z,9.10
2022-09-28T06:04:37.362Z,9.10
2022-09-28T06:07:05.539Z,9.10
2022-09-28T06:09:33.723Z,9.00
2022-09-28T06:12:35.321Z,9.00
2022-09-28T06:15:09.726Z,9.10
2022-09-28T06:17:37.916Z,9.20
2022-09-28T06:20:34.800Z,9.10
2022-09-28T06:23:14.075Z,9.10
2022-09-28T06:25:42.684Z,9.10
2022-09-28T06:28:13.882Z,9.10
2022-09-28T06:30:43.265Z,9.20
2022-09-28T06:33:16.361Z,9.20
2022-09-28T06:35:44.627Z,9.30
2022-09-28T06:38:13.149Z,9.30
2022-09-28T06:40:41.409Z,9.40
2022-09-28T06:43:14.990Z,9.50
2022-09-28T06:46:02.254Z,9.60
2022-09-28T06:48:50.447Z,9.70
2022-09-28T06:51:50.704Z,9.70
2022-09-28T06:54:29.236Z,9.70
2022-09-28T06:57:03.114Z,9.70
2022-09-28T06:59:32.677Z,9.60
2022-09-28T07:02:02.585Z,9.70
2022-09-28T07:04:57.783Z,9.60
2022-09-28T07:07:44.858Z,9.70
2022-09-28T07:10:43.167Z,9.80
2022-09-28T07:16:16.707Z,9.90
2022-09-28T07:18:44.924Z,9.90
2022-09-28T07:21:24.710Z,9.80
2022-09-28T07:23:55.248Z,9.90
2022-09-28T07:26:26.747Z,9.80
2022-09-28T07:29:05.923Z,9.80
2022-09-28T07:31:56.017Z,9.80
2022-09-28T07:34:39.981Z,9.80
2022-09-28T07:37:14.376Z,9.80
2022-09-28T07:40:00.019Z,9.90
2022-09-28T07:42:32.677Z,9.80
2022-09-28T07:45:01.041Z,9.80
2022-09-28T07:47:35.052Z,9.90
2022-09-28T07:50:22.486Z,9.90
2022-09-28T07:53:02.905Z,10.10
2022-09-28T07:55:55.466Z,10.20
2022-09-28T07:58:38.636Z,10.20
2022-09-28T08:01:25.490Z,10.30
2022-09-28T08:03:56.339Z,10.30
2022-09-28T08:06:25.225Z,10.30
2022-09-28T08:08:56.269Z,10.50
2022-09-28T08:11:32.027Z,10.50
2022-09-28T08:14:23.712Z,10.50
2022-09-28T08:17:15.621Z,10.50
2022-09-28T08:20:09.576Z,10.60
2022-09-28T08:22:38.666Z,10.50
2022-09-28T08:25:08.461Z,10.50
2022-09-28T08:27:36.757Z,10.60
2022-09-28T08:30:07.130Z,10.50
2022-09-28T08:32:49.269Z,10.40
2022-09-28T08:35:37.064Z,10.50
2022-09-28T08:38:15.322Z,10.60
2022-09-28T08:41:15.286Z,10.60
2022-09-28T08:44:24.817Z,10.70
2022-09-28T08:47:38.290Z,10.80
2022-09-28T08:50:50.393Z,10.80
2022-09-28T08:53:43.406Z,10.80
2022-09-28T08:56:30.773Z,10.80
2022-09-28T08:59:02.415Z,10.70
2022-09-28T09:01:36.853Z,10.70
2022-09-28T09:04:09.182Z,10.90
2022-09-28T09:07:18.969Z,10.80
2022-09-28T09:10:04.896Z,10.90
2022-09-28T09:12:41.442Z,10.80
2022-09-28T09:15:25.141Z,10.80
2022-09-28T09:18:07.373Z,10.80
2022-09-28T09:20:53.644Z,10.80
2022-09-28T09:23:39.137Z,10.80
2022-09-28T09:26:19.058Z,10.70
2022-09-28T09:29:13.947Z,10.60
2022-09-28T09:32:17.974Z,10.60
2022-09-28T09:35:18.074Z,10.60
2022-09-28T09:38:24.477Z,10.60
2022-09-28T09:41:22.829Z,10.50
2022-09-28T09:44:48.819Z,10.50
2022-09-28T09:47:32.887Z,10.50
2022-09-28T09:50:15.126Z,10.60
2022-09-28T09:52:49.831Z,10.70
2022-09-28T09:55:29.744Z,10.90
2022-09-28T09:58:21.800Z,11.00
2022-09-28T10:00:59.346Z,11.20
2022-09-28T10:03:49.833Z,11.20
2022-09-28T10:06:26.470Z,11.20
2022-09-28T10:09:03.402Z,11.40
2022-09-28T10:11:37.038Z,11.50
2022-09-28T10:14:16.996Z,11.40
2022-09-28T10:16:54.218Z,11.60
2022-09-28T10:19:44.588Z,11.70
2022-09-28T10:22:33.170Z,11.80
2022-09-28T10:25:09.915Z,11.80
2022-09-28T10:27:44.280Z,11.80
2022-09-28T10:30:20.035Z,12.00
2022-09-28T10:32:50.422Z,11.90
2022-09-28T10:35:24.713Z,11.80
2022-09-28T10:38:04.463Z,11.60
2022-09-28T10:40:55.382Z,11.40
2022-09-28T10:43:34.956Z,11.00
2022-09-28T10:46:13.179Z,11.10
2022-09-28T10:48:51.577Z,11.00
2022-09-28T10:51:22.038Z,11.10
2022-09-28T10:54:02.414Z,11.20
2022-09-28T10:56:47.571Z,11.10
2022-09-28T10:59:37.559Z,11.10
2022-09-28T11:02:32.424Z,11.20
2022-09-28T11:05:19.635Z,11.20
2022-09-28T11:07:49.315Z,11.30
2022-09-28T11:10:25.151Z,11.40
2022-09-28T11:12:56.876Z,11.50
2022-09-28T11:15:30.379Z,11.50
2022-09-28T11:18:20.045Z,11.60
2022-09-28T11:20:49.553Z,11.70
2022-09-28T11:23:23.010Z,11.80
2022-09-28T11:26:00.994Z,11.90
2022-09-28T11:28:33.641Z,12.10
2022-09-28T11:31:09.041Z,12.10
2022-09-28T11:34:16.290Z,12.20
2022-09-28T11:37:35.495Z,12.20
2022-09-28T11:40:16.795Z,12.00
2022-09-28T11:42:55.996Z,12.00
2022-09-28T11:45:37.207Z,12.00
2022-09-28T11:48:07.149Z,12.30
2022-09-28T11:50:46.480Z,12.30
2022-09-28T11:53:23.519Z,12.40
2022-09-28T11:56:03.287Z,12.40
2022-09-28T11:58:38.824Z,12.70
2022-09-28T12:01:18.912Z,12.60
2022-09-28T12:04:18.826Z,12.70
2022-09-28T12:06:52.743Z,12.60
2022-09-28T12:09:31.438Z,12.60
2022-09-28T12:12:18.504Z,12.60
2022-09-28T12:14:48.274Z,12.50
2022-09-28T12:17:23.353Z,12.70
2022-09-28T12:19:59.363Z,12.80
2022-09-28T12:22:33.925Z,13.00
2022-09-28T12:25:04.972Z,13.00
2022-09-28T12:27:39.526Z,12.90
2022-09-28T12:30:15.214Z,13.00
2022-09-28T12:32:47.572Z,12.90
2022-09-28T12:35:20.842Z,12.80
2022-09-28T12:38:16.526Z,12.90
2022-09-28T12:40:53.984Z,12.90
2022-09-28T12:44:07.110Z,12.90
2022-09-28T12:46:49.163Z,12.80
2022-09-28T12:50:27.247Z,12.80
2022-09-28T12:52:32.571Z,12.80
2022-09-28T12:55:22.253Z,12.80
2022-09-28T12:57:59.350Z,12.80
2022-09-28T13:00:34.460Z,12.80
2022-09-28T13:03:59.504Z,12.80
2022-09-28T13:06:43.171Z,12.90
2022-09-28T13:09:23.458Z,13.20
2022-09-28T13:12:21.356Z,13.30
2022-09-28T13:15:25.091Z,13.30
2022-09-28T13:18:04.175Z,13.40
2022-09-28T13:21:08.029Z,13.40
2022-09-28T13:23:39.732Z,13.30
2022-09-28T13:26:16.096Z,13.20
2022-09-28T13:28:47.272Z,13.10
2022-09-28T13:31:20.795Z,13.10
2022-09-28T13:33:51.054Z,12.90
2022-09-28T13:36:39.127Z,12.90
2022-09-28T13:39:48.850Z,12.70
2022-09-28T13:42:52.937Z,12.60
2022-09-28T13:45:46.669Z,12.50
2022-09-28T13:48:17.291Z,12.60
2022-09-28T13:51:07.310Z,12.70
2022-09-28T13:53:47.124Z,12.80
2022-09-28T13:56:28.260Z,12.90
2022-09-28T13:59:00.163Z,12.90
2022-09-28T14:01:32.877Z,13.10
2022-09-28T14:04:14.952Z,13.10
2022-09-28T14:06:48.163Z,13.20
2022-09-28T14:09:41.041Z,13.20
2022-09-28T14:12:28.830Z,13.20
2022-09-28T14:14:57.185Z,13.20
2022-09-28T14:17:59.995Z,13.30
2022-09-28T14:20:31.411Z,13.40
2022-09-28T14:23:34.414Z,13.30
2022-09-28T14:26:20.766Z,13.40
2022-09-28T14:29:05.216Z,13.40
2022-09-28T14:31:35.356Z,13.20
2022-09-28T14:34:05.965Z,13.10
2022-09-28T14:36:59.185Z,12.90
2022-09-28T14:39:48.601Z,12.90
2022-09-28T14:42:20.141Z,12.80
2022-09-28T14:45:35.778Z,12.80
2022-09-28T14:48:21.444Z,12.80
2022-09-28T14:50:51.495Z,12.90
2022-09-28T14:53:23.078Z,12.80
2022-09-28T14:55:55.507Z,12.70
2022-09-28T14:58:26.687Z,12.70
2022-09-28T15:01:06.384Z,12.60
2022-09-28T15:03:36.568Z,12.60
2022-09-28T15:06:06.488Z,12.50
2022-09-28T15:08:39.534Z,12.50
2022-09-28T15:11:15.414Z,12.50
2022-09-28T15:13:44.022Z,12.50
2022-09-28T15:16:15.345Z,12.50
2022-09-28T15:19:08.932Z,12.50
2022-09-28T15:21:40.739Z,12.40
2022-09-28T15:24:31.443Z,12.40
2022-09-28T15:27:00.226Z,12.20
2022-09-28T15:29:31.463Z,12.20
2022-09-28T15:32:00.026Z,12.10
2022-09-28T15:34:47.346Z,12.10
2022-09-28T15:37:22.044Z,12.10
2022-09-28T15:39:51.638Z,12.00
2022-09-28T15:42:20.624Z,12.00
2022-09-28T15:45:13.256Z,11.90
2022-09-28T15:47:43.687Z,11.90
2022-09-28T15:50:22.377Z,11.80
2022-09-28T15:52:58.046Z,11.80
2022-09-28T15:55:29.711Z,11.80
2022-09-28T15:58:17.126Z,11.80
2022-09-28T16:00:46.474Z,11.70
2022-09-28T16:03:28.837Z,11.70
2022-09-28T16:06:07.869Z,11.60
2022-09-28T16:08:43.840Z,11.50
2022-09-28T16:11:17.705Z,11.60
2022-09-28T16:13:53.931Z,11.60
2022-09-28T16:16:27.352Z,11.50
2022-09-28T16:18:55.656Z,11.60
2022-09-28T16:21:38.213Z,11.50
2022-09-28T16:24:08.549Z,11.40
2022-09-28T16:26:39.019Z,11.40
2022-09-28T16:29:25.893Z,11.30
2022-09-28T16:31:56.177Z,11.30
2022-09-28T16:34:28.610Z,11.30
2022-09-28T16:36:56.762Z,11.30
2022-09-28T16:39:26.352Z,11.30
2022-09-28T16:41:56.885Z,11.30
2022-09-28T16:44:27.032Z,11.30
2022-09-28T16:46:57.041Z,11.30
2022-09-28T16:49:26.864Z,11.30
2022-09-28T16:51:55.575Z,11.30
2022-09-28T16:54:55.182Z,11.30
2022-09-28T16:57:23.635Z,11.40
2022-09-28T16:59:51.887Z,11.20
2022-09-28T17:05:15.851Z,11.30
2022-09-28T17:07:45.170Z,11.40
2022-09-28T17:10:19.292Z,11.40
2022-09-28T17:12:47.598Z,11.50
2022-09-28T17:15:19.615Z,11.50
2022-09-28T17:17:48.590Z,11.40
2022-09-28T17:20:22.868Z,11.40
2022-09-28T17:22:51.534Z,11.40
2022-09-28T17:25:21.870Z,11.40
2022-09-28T17:27:51.705Z,11.30
2022-09-28T17:30:23.653Z,11.20
2022-09-28T17:32:53.902Z,11.20
2022-09-28T17:35:24.736Z,11.20
2022-09-28T17:37:53.723Z,11.20
2022-09-28T17:40:28.412Z,11.30
2022-09-28T17:42:57.069Z,11.30
2022-09-28T17:45:28.227Z,11.30
2022-09-28T17:47:57.338Z,11.20
2022-09-28T17:50:27.906Z,11.20
2022-09-28T17:52:58.076Z,11.20
2022-09-28T17:55:30.402Z,11.10
2022-09-28T17:57:59.075Z,11.10
2022-09-28T18:00:28.232Z,11.00
2022-09-28T18:02:57.282Z,11.00
2022-09-28T18:05:26.313Z,10.90
2022-09-28T18:07:54.718Z,10.90
2022-09-28T18:10:24.639Z,10.80
2022-09-28T18:12:54.291Z,10.80
2022-09-28T18:15:22.677Z,10.70
2022-09-28T18:17:50.893Z,10.70
2022-09-28T18:20:19.382Z,10.70
2022-09-28T18:22:47.719Z,10.60
2022-09-28T18:25:15.911Z,10.60
2022-09-28T18:27:44.226Z,10.60
2022-09-28T18:30:14.065Z,10.60
2022-09-28T18:32:42.339Z,10.60
2022-09-28T18:35:11.390Z,10.60
2022-09-28T18:37:41.367Z,10.50
2022-09-28T18:40:12.743Z,10.60
2022-09-28T18:42:41.244Z,10.40
2022-09-28T18:45:11.831Z,10.40
2022-09-28T18:47:41.744Z,10.40
2022-09-28T18:50:11.558Z,10.40
2022-09-28T18:52:40.064Z,10.40
2022-09-28T18:55:09.180Z,10.40
2022-09-28T18:57:37.668Z,10.40
2022-09-28T19:00:08.949Z,10.40
2022-09-28T19:02:37.923Z,10.40
2022-09-28T19:05:08.808Z,10.40
2022-09-28T19:07:37.088Z,10.30
2022-09-28T19:10:06.249Z,10.30
2022-09-28T19:12:34.727Z,10.20
2022-09-28T19:15:03.086Z,10.20
2022-09-28T19:17:31.364Z,10.10
2022-09-28T19:19:59.579Z,10.00
2022-09-28T19:22:30.510Z,10.00
2022-09-28T19:24:58.760Z,10.00
2022-09-28T19:27:26.941Z,10.00
2022-09-28T19:29:55.298Z,10.00
2022-09-28T19:32:23.461Z,9.90
2022-09-28T19:34:51.722Z,9.90
2022-09-28T19:37:19.935Z,9.90
2022-09-28T19:39:49.553Z,9.80
2022-09-28T19:42:17.763Z,9.90
2022-09-28T19:44:46.489Z,9.90
2022-09-28T19:47:14.651Z,9.90
2022-09-28T19:49:42.797Z,9.90
2022-09-28T19:52:16.144Z,9.80
2022-09-28T19:54:52.143Z,9.80
2022-09-28T19:57:22.650Z,9.80
2022-09-28T19:59:52.792Z,9.80
2022-09-28T20:02:22.871Z,9.70
2022-09-28T20:04:51.159Z,9.60
2022-09-28T20:07:19.381Z,9.50
2022-09-28T20:09:47.830Z,9.40
2022-09-28T20:12:16.041Z,9.30
2022-09-28T20:14:45.644Z,9.30
2022-09-28T20:17:13.922Z,9.30
2022-09-28T20:19:42.262Z,9.20
2022-09-28T20:22:12.156Z,9.20
2022-09-28T20:24:40.357Z,9.10
2022-09-28T20:27:08.718Z,9.10
2022-09-28T20:29:37.073Z,9.00
2022-09-28T20:32:06.698Z,9.00
2022-09-28T20:34:34.983Z,9.00
2022-09-28T20:37:03.255Z,8.90
2022-09-28T20:39:31.430Z,8.90
2022-09-28T20:41:59.795Z,9.00
2022-09-28T20:44:27.997Z,9.00
2022-09-28T20:46:56.707Z,9.00
2022-09-28T20:49:27.216Z,9.00
2022-09-28T20:51:55.556Z,8.90
2022-09-28T20:54:23.738Z,8.90
2022-09-28T20:56:51.893Z,8.90
2022-09-28T20:59:22.649Z,8.80
2022-09-28T21:01:51.086Z,8.80
2022-09-28T21:04:19.685Z,8.80
2022-09-28T21:06:49.332Z,8.70
2022-09-28T21:09:17.509Z,8.70
2022-09-28T21:11:46.363Z,8.70
2022-09-28T21:14:14.508Z,8.70
2022-09-28T21:16:42.684Z,8.70
2022-09-28T21:19:10.810Z,8.70
2022-09-28T21:21:39.303Z,8.80
2022-09-28T21:24:09.351Z,8.90
2022-09-28T21:26:37.598Z,8.90
2022-09-28T21:29:07.273Z,8.90
2022-09-28T21:31:40.109Z,8.90
2022-09-28T21:34:08.678Z,8.90
2022-09-28T21:36:36.839Z,9.00
2022-09-28T21:39:10.080Z,9.10
2022-09-28T21:41:40.312Z,9.10
2022-09-28T21:44:08.926Z,9.10
2022-09-28T21:46:37.921Z,9.10
2022-09-28T21:49:07.585Z,9.20
2022-09-28T21:51:36.146Z,9.20
2022-09-28T21:54:04.596Z,9.30
2022-09-28T21:56:32.736Z,9.30
2022-09-28T21:59:02.462Z,9.30
2022-09-28T22:01:31.792Z,9.40
2022-09-28T22:04:00.132Z,9.30
2022-09-28T22:06:29.199Z,9.40
2022-09-28T22:08:58.665Z,9.40
2022-09-28T22:11:29.108Z,9.40
2022-09-28T22:13:59.504Z,9.40
2022-09-28T22:16:31.003Z,9.40
2022-09-28T22:18:59.951Z,9.30
2022-09-28T22:21:30.491Z,9.30
2022-09-28T22:24:00.981Z,9.30
2022-09-28T22:26:31.499Z,9.30
2022-09-28T22:29:01.285Z,9.20
2022-09-28T22:31:32.974Z,9.20
2022-09-28T22:34:01.341Z,9.10
2022-09-28T22:36:30.776Z,9.20
2022-09-28T22:38:59.811Z,9.10
2022-09-28T22:41:28.380Z,9.00
2022-09-28T22:43:56.680Z,8.90
2022-09-28T22:46:26.832Z,8.80
2022-09-28T22:48:58.228Z,8.70
2022-09-28T22:51:28.433Z,8.70
2022-09-28T22:53:57.698Z,8.60
2022-09-28T22:56:26.124Z,8.60
2022-09-28T22:58:54.718Z,8.50
2022-09-28T23:01:24.403Z,8.50
2022-09-28T23:03:54.358Z,8.40
2022-09-28T23:06:26.001Z,8.40
2022-09-28T23:08:54.596Z,8.30
2022-09-28T23:11:22.818Z,8.20
2022-09-28T23:13:51.788Z,8.20
2022-09-28T23:16:20.699Z,8.20
2022-09-28T23:18:49.820Z,8.10
2022-09-28T23:21:21.030Z,8.10
2022-09-28T23:23:54.833Z,8.10
2022-09-28T23:26:25.479Z,8.00
2022-09-28T23:28:55.413Z,8.00
2022-09-28T23:31:25.485Z,7.90
2022-09-28T23:33:57.582Z,8.00
2022-09-28T23:36:25.746Z,7.90
2022-09-28T23:38:55.692Z,7.80
2022-09-28T23:41:23.881Z,7.80
2022-09-28T23:43:52.045Z,7.70
2022-09-28T23:46:21.152Z,7.70
2022-09-28T23:48:49.700Z,7.70
2022-09-28T23:51:18.113Z,7.70
2022-09-28T23:53:46.502Z,7.70
2022-09-28T23:56:16.076Z,7.70
2022-09-28T23:58:44.576Z,7.70
